Time;durP1;ratioP1;P1;durP2;ratioP2;P2;SDS_P1;SDS_P2;PMS_P1;PMS_P2;Temp;Humidity;BMP_temperature;BMP_pressure;BME280_temperature;BME280_humidity;BME280_pressure;Samples;Min_cycle;Max_cycle;Signal;HPM_P1;HPM_P2
2022/10/09 00:01:20;;;;;;;9.80;5.57;;;10.40;99.90;;;;;;5067638;28;20204;-32
2022/10/09 00:03:49;;;;;;;10.17;5.93;;;10.40;99.90;;;;;;5068158;28;20239;-32
2022/10/09 00:06:25;;;;;;;10.57;5.87;;;10.40;99.90;;;;;;5067818;28;20580;-33
2022/10/09 00:08:52;;;;;;;10.70;5.77;;;10.30;99.90;;;;;;5068184;28;20183;-32
2022/10/09 00:11:26;;;;;;;8.63;5.73;;;10.30;99.90;;;;;;5067527;28;20286;-32
2022/10/09 00:13:56;;;;;;;8.07;5.33;;;10.30;99.90;;;;;;5067759;28;20214;-33
2022/10/09 00:16:24;;;;;;;10.40;5.40;;;10.30;99.90;;;;;;5066559;28;20294;-32
2022/10/09 00:18:52;;;;;;;8.90;5.50;;;10.30;99.90;;;;;;5068015;28;20234;-33
2022/10/09 00:21:30;;;;;;;9.47;5.80;;;10.20;99.90;;;;;;5066799;28;20231;-33
2022/10/09 00:23:59;;;;;;;10.23;5.30;;;10.20;99.90;;;;;;5066541;28;20318;-33
2022/10/09 00:26:30;;;;;;;8.67;6.00;;;10.10;99.90;;;;;;5068446;28;20198;-33
2022/10/09 00:28:58;;;;;;;10.20;5.43;;;10.10;99.90;;;;;;5067519;28;20199;-33
2022/10/09 00:31:25;;;;;;;8.70;5.50;;;10.10;99.90;;;;;;5067548;28;20231;-33
2022/10/09 00:33:52;;;;;;;10.07;5.80;;;10.10;99.90;;;;;;5066508;28;20284;-33
2022/10/09 00:36:22;;;;;;;8.50;5.30;;;10.10;99.90;;;;;;5066130;28;20347;-33
2022/10/09 00:38:51;;;;;;;10.63;5.37;;;10.10;99.90;;;;;;5067645;28;20199;-33
2022/10/09 00:41:27;;;;;;;14.47;6.50;;;10.00;99.90;;;;;;5067760;28;20229;-33
2022/10/09 00:44:05;;;;;;;10.57;5.77;;;10.00;99.90;;;;;;5067757;28;20215;-33
2022/10/09 00:46:47;;;;;;;10.40;5.23;;;10.00;99.90;;;;;;5066385;28;20206;-33
2022/10/09 00:49:29;;;;;;;11.93;5.57;;;10.00;99.90;;;;;;5067521;28;20183;-34
2022/10/09 00:52:05;;;;;;;11.07;5.00;;;10.00;99.90;;;;;;5067101;28;20464;-33
2022/10/09 00:54:35;;;;;;;10.70;4.97;;;9.90;99.90;;;;;;5067894;28;20852;-33
2022/10/09 00:57:03;;;;;;;6.83;4.50;;;9.90;99.90;;;;;;5067835;28;20210;-33
2022/10/09 00:59:33;;;;;;;8.70;5.57;;;9.90;99.90;;;;;;5050122;28;20586;-32
2022/10/09 01:02:00;;;;;;;11.13;5.10;;;9.90;99.90;;;;;;5046897;28;20200;-33
2022/10/09 01:04:27;;;;;;;8.63;5.37;;;9.80;99.90;;;;;;5047663;28;20585;-32
2022/10/09 01:07:17;;;;;;;9.73;6.10;;;9.80;99.90;;;;;;5047071;28;20761;-32
2022/10/09 01:10:10;;;;;;;12.80;5.33;;;9.80;99.90;;;;;;5047226;28;20237;-32
2022/10/09 01:12:56;;;;;;;8.87;5.07;;;9.80;99.90;;;;;;5045379;28;20258;-32
2022/10/09 01:15:27;;;;;;;9.10;5.00;;;9.70;99.90;;;;;;5047530;28;20223;-32
2022/10/09 01:18:07;;;;;;;9.17;5.00;;;9.70;99.90;;;;;;5047139;28;20248;-33
2022/10/09 01:20:47;;;;;;;9.10;5.13;;;9.70;99.90;;;;;;5046999;28;20204;-32
2022/10/09 01:23:35;;;;;;;9.87;5.60;;;9.70;99.90;;;;;;5046050;28;20698;-32
2022/10/09 01:26:05;;;;;;;8.10;5.00;;;9.60;99.90;;;;;;5046412;28;20695;-32
2022/10/09 01:28:34;;;;;;;7.87;5.30;;;9.60;99.90;;;;;;5046633;28;20563;-32
2022/10/09 01:31:04;;;;;;;10.37;4.70;;;9.60;99.90;;;;;;5046428;28;20207;-32
2022/10/09 01:33:32;;;;;;;6.03;4.40;;;9.60;99.90;;;;;;5050269;28;20200;-33
2022/10/09 01:36:01;;;;;;;9.47;5.00;;;9.50;99.90;;;;;;5050819;28;20247;-33
2022/10/09 01:38:29;;;;;;;12.20;5.30;;;9.50;99.90;;;;;;5050935;28;20192;-32
2022/10/09 01:40:57;;;;;;;10.87;5.50;;;9.50;99.90;;;;;;5050798;28;20513;-32
2022/10/09 01:43:25;;;;;;;7.70;4.50;;;9.50;99.90;;;;;;5050394;28;20216;-32
2022/10/09 01:46:31;;;;;;;8.73;4.90;;;9.50;99.90;;;;;;5049492;28;20245;-32
2022/10/09 01:49:06;;;;;;;10.53;5.63;;;9.40;99.90;;;;;;5050506;28;20254;-32
2022/10/09 01:51:54;;;;;;;8.83;4.93;;;9.40;99.90;;;;;;5050437;28;20541;-33
2022/10/09 01:54:46;;;;;;;8.07;4.43;;;9.40;99.90;;;;;;5051075;28;20189;-33
2022/10/09 01:57:21;;;;;;;8.87;4.90;;;9.40;99.90;;;;;;5050737;28;20224;-33
2022/10/09 01:59:51;;;;;;;9.47;4.60;;;9.30;99.90;;;;;;5049500;28;20188;-33
2022/10/09 02:02:19;;;;;;;8.87;4.90;;;9.30;99.90;;;;;;5050559;28;20204;-33
2022/10/09 02:04:48;;;;;;;12.17;5.47;;;9.30;99.90;;;;;;5050105;28;20227;-32
2022/10/09 02:07:16;;;;;;;12.43;5.03;;;9.30;99.90;;;;;;5032780;28;20214;-33
2022/10/09 02:09:45;;;;;;;7.83;5.07;;;9.30;99.90;;;;;;5049033;28;20262;-33
2022/10/09 02:12:15;;;;;;;9.50;5.13;;;9.20;99.90;;;;;;5050490;28;20193;-33
2022/10/09 02:14:42;;;;;;;9.73;5.07;;;9.20;99.90;;;;;;5050707;28;20204;-33
2022/10/09 02:17:16;;;;;;;9.83;4.80;;;9.20;99.90;;;;;;5050262;28;20632;-33
2022/10/09 02:19:55;;;;;;;7.00;4.80;;;9.20;99.90;;;;;;5050012;28;20710;-33
2022/10/09 02:22:29;;;;;;;7.30;5.20;;;9.20;99.90;;;;;;5050421;28;20242;-33
2022/10/09 02:25:00;;;;;;;7.63;4.40;;;9.10;99.90;;;;;;5049995;28;20232;-33
2022/10/09 02:27:28;;;;;;;9.60;4.83;;;9.10;99.90;;;;;;5049879;28;20244;-33
2022/10/09 02:29:57;;;;;;;9.17;5.00;;;9.10;99.90;;;;;;5050387;28;20192;-33
2022/10/09 02:32:24;;;;;;;10.43;4.97;;;9.10;99.90;;;;;;5049887;28;20196;-33
2022/10/09 02:34:52;;;;;;;8.53;4.70;;;9.00;99.90;;;;;;5048442;28;20196;-33
2022/10/09 02:37:19;;;;;;;8.23;4.67;;;9.00;99.90;;;;;;5049888;28;20297;-33
2022/10/09 02:39:46;;;;;;;9.40;5.07;;;9.00;99.90;;;;;;5047136;28;20404;-33
2022/10/09 02:42:13;;;;;;;7.60;4.60;;;9.20;99.90;;;;;;5049344;28;20232;-33
2022/10/09 02:44:41;;;;;;;7.47;4.27;;;9.20;99.90;;;;;;5048448;28;20255;-33
2022/10/09 02:47:08;;;;;;;8.17;4.80;;;9.10;99.90;;;;;;5049421;28;20199;-33
2022/10/09 02:49:38;;;;;;;6.80;4.80;;;9.10;99.90;;;;;;5049542;28;20295;-33
2022/10/09 02:52:05;;;;;;;7.07;4.10;;;9.10;99.90;;;;;;5049257;28;20227;-33
2022/10/09 02:54:35;;;;;;;5.83;3.87;;;9.00;99.90;;;;;;5049220;28;20682;-33
2022/10/09 02:57:02;;;;;;;7.33;4.73;;;9.00;99.90;;;;;;5049394;28;20204;-33
2022/10/09 02:59:30;;;;;;;7.57;4.37;;;9.00;99.90;;;;;;5049199;28;20215;-33
2022/10/09 03:01:58;;;;;;;8.03;5.07;;;8.90;99.90;;;;;;5049221;28;20556;-33
2022/10/09 03:04:28;;;;;;;5.07;3.80;;;8.90;99.90;;;;;;5049016;28;20223;-33
2022/10/09 03:06:55;;;;;;;8.27;4.40;;;8.90;99.90;;;;;;5049285;28;20189;-33
2022/10/09 03:09:23;;;;;;;11.37;5.20;;;8.80;99.90;;;;;;5049225;28;20196;-33
2022/10/09 03:11:52;;;;;;;8.17;4.37;;;8.80;99.90;;;;;;5049667;28;20561;-33
2022/10/09 03:14:19;;;;;;;9.07;4.37;;;8.80;99.90;;;;;;5049195;28;20230;-33
2022/10/09 03:16:47;;;;;;;7.67;4.63;;;8.80;99.90;;;;;;5049143;28;20211;-33
2022/10/09 03:19:14;;;;;;;9.23;4.37;;;8.80;99.90;;;;;;5048901;28;20621;-33
2022/10/09 03:21:41;;;;;;;7.27;3.87;;;8.70;99.90;;;;;;5048853;28;20282;-34
2022/10/09 03:24:09;;;;;;;7.77;4.00;;;8.70;99.90;;;;;;5048780;28;20220;-33
2022/10/09 03:26:36;;;;;;;7.30;4.33;;;8.70;99.90;;;;;;5049071;28;20201;-33
2022/10/09 03:29:04;;;;;;;9.23;4.23;;;8.70;99.90;;;;;;5048783;28;20443;-33
2022/10/09 03:31:31;;;;;;;7.50;4.67;;;8.70;99.90;;;;;;5048811;28;20744;-33
2022/10/09 03:34:18;;;;;;;7.90;4.23;;;8.60;99.90;;;;;;5048300;28;20621;-33
2022/10/09 03:36:45;;;;;;;8.23;4.80;;;8.60;99.90;;;;;;5048864;28;20302;-33
2022/10/09 03:39:13;;;;;;;8.60;4.73;;;8.60;99.90;;;;;;5047481;28;20291;-33
2022/10/09 03:41:40;;;;;;;7.97;4.47;;;8.60;99.90;;;;;;5048744;28;20204;-33
2022/10/09 03:44:07;;;;;;;6.70;4.50;;;8.60;99.90;;;;;;5048992;28;20227;-33
2022/10/09 03:46:34;;;;;;;8.97;4.57;;;8.60;99.90;;;;;;5048641;28;20303;-33
2022/10/09 03:49:01;;;;;;;6.50;4.13;;;8.50;99.90;;;;;;5048284;28;20223;-33
2022/10/09 03:51:29;;;;;;;6.40;4.20;;;8.50;99.90;;;;;;5048603;28;20204;-33
2022/10/09 03:53:56;;;;;;;9.07;5.03;;;8.50;99.90;;;;;;5048561;28;20226;-33
2022/10/09 03:56:23;;;;;;;9.03;4.97;;;8.50;99.90;;;;;;5048265;28;20647;-33
2022/10/09 03:58:50;;;;;;;10.97;4.63;;;8.50;99.90;;;;;;5048630;28;20343;-33
2022/10/09 04:01:19;;;;;;;9.47;4.67;;;8.40;99.90;;;;;;5047752;28;20220;-33
2022/10/09 04:03:49;;;;;;;9.07;4.50;;;8.50;99.90;;;;;;5048319;28;20310;-33
2022/10/09 04:06:16;;;;;;;9.17;4.43;;;8.40;99.90;;;;;;5047891;28;20662;-33
2022/10/09 04:08:46;;;;;;;10.93;5.30;;;8.40;99.90;;;;;;5046781;28;20196;-33
2022/10/09 04:11:13;;;;;;;6.43;4.50;;;8.40;99.90;;;;;;5047642;28;20594;-33
2022/10/09 04:13:40;;;;;;;6.17;4.53;;;8.40;99.90;;;;;;5048091;28;20299;-33
2022/10/09 04:16:11;;;;;;;7.37;4.43;;;8.40;99.90;;;;;;5047879;28;20683;-33
2022/10/09 04:18:40;;;;;;;8.10;5.07;;;8.40;99.90;;;;;;5047900;28;20294;-33
2022/10/09 04:21:08;;;;;;;7.30;4.43;;;8.30;99.90;;;;;;5047623;28;20244;-33
2022/10/09 04:23:35;;;;;;;8.43;4.40;;;8.30;99.90;;;;;;5047910;28;20323;-33
2022/10/09 04:26:02;;;;;;;6.67;4.33;;;8.30;99.90;;;;;;5047957;28;20675;-33
2022/10/09 04:28:31;;;;;;;7.47;4.83;;;8.30;99.90;;;;;;5046417;28;20222;-33
2022/10/09 04:30:58;;;;;;;9.23;4.33;;;8.30;99.90;;;;;;5047800;28;20232;-33
2022/10/09 04:33:26;;;;;;;7.53;4.27;;;8.30;99.90;;;;;;5048029;28;20287;-33
2022/10/09 04:35:56;;;;;;;10.07;4.50;;;8.30;99.90;;;;;;5047438;28;20695;-33
2022/10/09 04:38:24;;;;;;;7.87;4.47;;;8.30;99.90;;;;;;5047880;28;20192;-33
2022/10/09 04:41:04;;;;;;;8.27;3.97;;;8.30;99.90;;;;;;5046241;28;20565;-33
2022/10/09 04:43:33;;;;;;;7.53;4.07;;;8.20;99.90;;;;;;5046080;28;20211;-33
2022/10/09 04:46:04;;;;;;;8.33;4.27;;;8.20;99.90;;;;;;5047560;28;20212;-33
2022/10/09 04:48:44;;;;;;;8.33;4.50;;;8.20;99.90;;;;;;5047489;28;20204;-33
2022/10/09 04:51:12;;;;;;;10.37;4.30;;;8.20;99.90;;;;;;5046453;28;20195;-33
2022/10/09 04:53:40;;;;;;;5.73;4.03;;;8.20;99.90;;;;;;5047602;28;20311;-33
2022/10/09 04:56:12;;;;;;;6.97;4.17;;;8.20;99.90;;;;;;5047428;28;20205;-33
2022/10/09 04:58:40;;;;;;;7.10;4.33;;;8.20;99.90;;;;;;5048878;28;20191;-33
2022/10/09 05:01:14;;;;;;;6.77;4.57;;;8.10;99.90;;;;;;5067254;28;20243;-33
2022/10/09 05:03:41;;;;;;;6.37;4.53;;;8.10;99.90;;;;;;5050833;28;20240;-33
2022/10/09 05:06:10;;;;;;;9.03;4.70;;;8.10;99.90;;;;;;5061003;28;20234;-33
2022/10/09 05:08:38;;;;;;;7.03;4.30;;;8.10;99.90;;;;;;5065900;28;20203;-33
2022/10/09 05:11:10;;;;;;;6.37;4.17;;;8.10;99.90;;;;;;5049668;28;20212;-33
2022/10/09 05:13:43;;;;;;;6.33;4.03;;;8.10;99.90;;;;;;5066553;28;20300;-33
2022/10/09 05:16:15;;;;;;;8.23;4.20;;;8.10;99.90;;;;;;5051031;28;20666;-33
2022/10/09 05:18:50;;;;;;;9.23;4.33;;;8.10;99.90;;;;;;5050937;28;20235;-32
2022/10/09 05:21:18;;;;;;;6.57;3.90;;;8.00;99.90;;;;;;5051090;28;20192;-33
2022/10/09 05:23:46;;;;;;;8.77;4.10;;;8.00;99.90;;;;;;5050769;28;20212;-33
2022/10/09 05:26:19;;;;;;;10.27;4.07;;;8.00;99.90;;;;;;5051194;28;20204;-33
2022/10/09 05:28:46;;;;;;;6.97;4.10;;;8.00;99.90;;;;;;5051394;28;20736;-33
2022/10/09 05:31:22;;;;;;;7.43;3.90;;;8.00;99.90;;;;;;5048873;28;20224;-33
2022/10/09 05:33:52;;;;;;;6.60;3.73;;;8.00;99.90;;;;;;5050689;28;20214;-33
2022/10/09 05:36:20;;;;;;;9.93;4.77;;;8.00;99.90;;;;;;5053408;28;20225;-33
2022/10/09 05:38:47;;;;;;;8.27;3.93;;;7.90;99.90;;;;;;5061203;28;20196;-33
2022/10/09 05:41:17;;;;;;;8.70;3.70;;;7.90;99.90;;;;;;5063269;28;20210;-33
2022/10/09 05:43:49;;;;;;;6.30;3.60;;;7.90;99.90;;;;;;5054554;28;20195;-33
2022/10/09 05:46:22;;;;;;;9.47;3.57;;;7.90;99.90;;;;;;5070598;28;20243;-33
2022/10/09 05:48:52;;;;;;;8.40;4.07;;;7.90;99.90;;;;;;5069633;28;20188;-33
2022/10/09 05:51:28;;;;;;;8.40;4.30;;;7.90;99.90;;;;;;5066170;28;20663;-33
2022/10/09 05:53:56;;;;;;;7.87;3.83;;;7.90;99.90;;;;;;5068262;28;20207;-33
2022/10/09 05:56:29;;;;;;;5.87;3.70;;;7.90;99.90;;;;;;5070465;28;20258;-32
2022/10/09 05:58:57;;;;;;;7.50;4.10;;;7.90;99.90;;;;;;5069113;28;20196;-32
2022/10/09 06:01:31;;;;;;;8.27;4.13;;;7.90;99.90;;;;;;5069338;28;20284;-32
2022/10/09 06:03:59;;;;;;;7.77;4.03;;;7.90;99.90;;;;;;5068237;28;20231;-31
2022/10/09 06:06:29;;;;;;;10.03;3.93;;;7.90;99.90;;;;;;5070996;28;20195;-32
2022/10/09 06:08:57;;;;;;;6.53;3.90;;;7.90;99.90;;;;;;5070046;28;20191;-32
2022/10/09 06:11:28;;;;;;;6.80;3.97;;;7.90;99.90;;;;;;5069075;28;20222;-31
2022/10/09 06:13:55;;;;;;;8.67;4.90;;;7.90;99.90;;;;;;5069098;28;20289;-32
2022/10/09 06:16:25;;;;;;;10.60;4.20;;;7.90;99.90;;;;;;5072947;28;20207;-32
2022/10/09 06:18:56;;;;;;;7.83;4.60;;;7.90;99.90;;;;;;5068245;28;20644;-32
2022/10/09 06:21:25;;;;;;;10.23;4.63;;;7.90;99.90;;;;;;5067270;28;20342;-33
2022/10/09 06:23:57;;;;;;;6.50;4.10;;;7.90;99.90;;;;;;5070117;28;20206;-32
2022/10/09 06:26:28;;;;;;;10.63;4.30;;;7.90;99.90;;;;;;5067448;28;20508;-32
2022/10/09 06:28:59;;;;;;;8.63;4.20;;;7.90;99.90;;;;;;5068914;28;20199;-31
2022/10/09 06:31:32;;;;;;;8.50;4.70;;;7.90;99.90;;;;;;5067883;28;20204;-32
2022/10/09 06:34:03;;;;;;;7.73;5.17;;;7.90;99.90;;;;;;5070126;28;20517;-32
2022/10/09 06:36:34;;;;;;;8.53;4.33;;;7.90;99.90;;;;;;5065353;28;20298;-32
2022/10/09 06:39:06;;;;;;;8.63;4.80;;;7.90;99.90;;;;;;5066413;28;20210;-33
2022/10/09 06:41:33;;;;;;;16.73;4.90;;;7.90;99.90;;;;;;5083572;28;20742;-32
2022/10/09 06:44:03;;;;;;;10.50;4.83;;;7.90;99.90;;;;;;5068727;28;20196;-31
2022/10/09 06:46:35;;;;;;;12.17;4.50;;;7.90;99.90;;;;;;5065444;28;20206;-32
2022/10/09 06:49:04;;;;;;;8.30;5.40;;;8.00;99.90;;;;;;5066843;28;20207;-31
2022/10/09 06:51:32;;;;;;;9.80;4.73;;;8.00;99.90;;;;;;5064250;28;20199;-32
2022/10/09 06:54:06;;;;;;;8.23;4.40;;;8.00;99.90;;;;;;5067983;28;20203;-32
2022/10/09 06:56:33;;;;;;;9.53;4.70;;;8.00;99.90;;;;;;5068888;28;20278;-32
2022/10/09 06:59:06;;;;;;;10.47;4.83;;;8.00;99.90;;;;;;5069288;28;20635;-32
2022/10/09 07:01:33;;;;;;;7.93;4.47;;;8.10;99.90;;;;;;5065227;28;20195;-32
2022/10/09 07:04:20;;;;;;;6.97;4.43;;;8.10;99.90;;;;;;5069228;28;20238;-32
2022/10/09 07:06:49;;;;;;;8.67;4.80;;;8.10;99.90;;;;;;5067202;28;20211;-31
2022/10/09 07:09:17;;;;;;;8.20;4.30;;;8.10;99.90;;;;;;5068459;28;20196;-34
2022/10/09 07:11:47;;;;;;;9.00;4.63;;;8.20;99.90;;;;;;5065788;28;20200;-31
2022/10/09 07:14:16;;;;;;;8.33;4.60;;;8.20;99.90;;;;;;5058461;28;20203;-32
2022/10/09 07:16:47;;;;;;;7.80;4.33;;;8.30;99.90;;;;;;5065587;28;20230;-32
2022/10/09 07:19:16;;;;;;;10.53;5.43;;;8.30;99.90;;;;;;5059876;28;20239;-33
2022/10/09 07:21:45;;;;;;;9.20;4.30;;;8.30;99.90;;;;;;5067845;28;20213;-32
2022/10/09 07:24:13;;;;;;;7.87;4.63;;;8.40;99.90;;;;;;5064091;28;20612;-31
2022/10/09 07:26:43;;;;;;;8.33;4.67;;;8.40;99.90;;;;;;5066415;28;20206;-33
2022/10/09 07:29:15;;;;;;;11.23;4.83;;;8.40;99.90;;;;;;5065743;28;20203;-32
2022/10/09 07:31:45;;;;;;;9.97;4.47;;;8.50;99.90;;;;;;5063370;28;20198;-32
2022/10/09 07:34:12;;;;;;;9.00;4.70;;;8.50;99.90;;;;;;5064644;28;20641;-32
2022/10/09 07:36:41;;;;;;;11.47;5.20;;;8.60;99.90;;;;;;5067413;28;20253;-32
2022/10/09 07:39:09;;;;;;;10.70;5.30;;;8.60;99.90;;;;;;5067645;28;20424;-32
2022/10/09 07:41:36;;;;;;;8.53;5.10;;;8.70;99.90;;;;;;5059603;28;20202;-32
2022/10/09 07:44:03;;;;;;;8.63;5.00;;;8.70;99.90;;;;;;5060394;28;20211;-31
2022/10/09 07:46:33;;;;;;;8.30;4.63;;;8.80;99.90;;;;;;5061144;28;20203;-32
2022/10/09 07:49:01;;;;;;;9.63;4.60;;;8.80;99.90;;;;;;5064587;28;20192;-32
2022/10/09 07:51:30;;;;;;;12.13;5.00;;;8.90;99.90;;;;;;5064349;28;20210;-32
2022/10/09 07:53:59;;;;;;;10.07;4.97;;;9.00;99.90;;;;;;5060971;28;20210;-32
2022/10/09 07:56:32;;;;;;;9.50;5.30;;;9.00;99.90;;;;;;5055753;28;20205;-34
2022/10/09 07:59:02;;;;;;;9.90;5.30;;;9.10;99.90;;;;;;5061443;28;20231;-32
2022/10/09 08:01:30;;;;;;;9.43;4.87;;;9.20;99.90;;;;;;5064357;28;20219;-32
2022/10/09 08:03:59;;;;;;;8.63;4.83;;;9.30;99.90;;;;;;5060430;28;20203;-33
2022/10/09 08:06:26;;;;;;;9.23;4.80;;;9.40;99.90;;;;;;5067934;28;20211;-32
2022/10/09 08:08:55;;;;;;;10.30;5.10;;;9.40;99.90;;;;;;5067334;28;20216;-33
2022/10/09 08:11:24;;;;;;;10.70;4.77;;;9.50;99.90;;;;;;5067775;28;20284;-32
2022/10/09 08:13:52;;;;;;;8.90;5.60;;;9.60;99.90;;;;;;5068254;28;20271;-32
2022/10/09 08:16:21;;;;;;;8.97;5.07;;;9.60;99.90;;;;;;5067092;28;20253;-32
2022/10/09 08:18:54;;;;;;;9.13;5.07;;;9.70;99.90;;;;;;5060331;28;20259;-33
2022/10/09 08:21:21;;;;;;;8.90;5.27;;;9.80;99.90;;;;;;5065665;28;20204;-32
2022/10/09 08:23:53;;;;;;;13.13;5.63;;;9.90;99.90;;;;;;5061751;28;20196;-33
2022/10/09 08:26:22;;;;;;;8.80;4.43;;;10.00;99.90;;;;;;5067446;28;20230;-33
2022/10/09 08:28:51;;;;;;;8.97;4.20;;;10.00;99.90;;;;;;5068242;28;20226;-33
2022/10/09 08:31:24;;;;;;;10.17;4.83;;;10.20;99.90;;;;;;5065226;28;20314;-33
2022/10/09 08:33:53;;;;;;;14.33;4.57;;;10.20;99.90;;;;;;5063586;28;20694;-33
2022/10/09 08:36:21;;;;;;;9.17;4.43;;;10.30;99.90;;;;;;5066153;28;20208;-33
2022/10/09 08:38:49;;;;;;;7.03;4.40;;;10.40;99.90;;;;;;5060176;28;20196;-33
2022/10/09 08:41:31;;;;;;;8.17;4.33;;;10.50;99.90;;;;;;5053754;28;20330;-33
2022/10/09 08:44:03;;;;;;;8.33;4.37;;;10.60;99.90;;;;;;5062688;28;20754;-32
2022/10/09 08:46:44;;;;;;;7.60;4.30;;;10.70;99.90;;;;;;5066563;28;20211;-33
2022/10/09 08:49:30;;;;;;;8.03;4.47;;;10.70;99.90;;;;;;5068227;28;20207;-33
2022/10/09 08:52:20;;;;;;;11.77;4.70;;;10.80;99.90;;;;;;5060918;28;20561;-33
2022/10/09 08:54:47;;;;;;;8.53;3.83;;;10.90;99.90;;;;;;5055578;28;20228;-33
2022/10/09 08:57:16;;;;;;;7.23;3.90;;;11.00;99.90;;;;;;5052404;28;20290;-33
2022/10/09 08:59:46;;;;;;;9.47;4.20;;;11.10;99.90;;;;;;5060627;28;20238;-32
2022/10/09 09:02:55;;;;;;;8.33;4.20;;;11.20;99.90;;;;;;5061487;28;20223;-32
2022/10/09 09:05:38;;;;;;;6.93;3.80;;;11.30;99.90;;;;;;5054947;28;20227;-33
2022/10/09 09:08:18;;;;;;;8.63;4.57;;;11.40;99.90;;;;;;5055473;28;20786;-33
2022/10/09 09:11:16;;;;;;;7.07;3.70;;;11.50;99.90;;;;;;5064794;28;20196;-33
2022/10/09 09:14:11;;;;;;;6.73;3.40;;;11.60;99.90;;;;;;5059281;28;20199;-33
2022/10/09 09:16:49;;;;;;;5.80;3.20;;;11.70;99.90;;;;;;5065269;28;20577;-33
2022/10/09 09:19:31;;;;;;;8.07;3.80;;;11.70;99.90;;;;;;5055588;28;20372;-33
2022/10/09 09:21:58;;;;;;;6.23;3.50;;;11.80;99.90;;;;;;5053872;28;20222;-32
2022/10/09 09:24:52;;;;;;;6.03;3.13;;;11.90;99.90;;;;;;5062289;28;20322;-33
2022/10/09 09:27:35;;;;;;;11.90;3.70;;;12.00;99.90;;;;;;5049569;28;20231;-33
2022/10/09 09:30:11;;;;;;;6.83;3.07;;;12.10;99.90;;;;;;5061966;28;20196;-33
2022/10/09 09:32:55;;;;;;;3.97;3.00;;;12.20;99.90;;;;;;5062340;28;20199;-33
2022/10/09 09:35:45;;;;;;;6.47;3.47;;;12.30;99.90;;;;;;5064311;28;20199;-32
2022/10/09 09:38:14;;;;;;;6.63;2.90;;;12.40;99.90;;;;;;5060103;28;20269;-32
2022/10/09 09:40:42;;;;;;;6.53;2.80;;;12.40;99.90;;;;;;5055642;28;20207;-32
2022/10/09 09:43:22;;;;;;;6.37;2.63;;;12.50;99.90;;;;;;5063653;28;20238;-32
2022/10/09 09:45:55;;;;;;;8.37;3.33;;;12.60;99.90;;;;;;5063247;28;20223;-32
2022/10/09 09:48:39;;;;;;;5.60;2.60;;;12.70;99.90;;;;;;5063789;28;20253;-32
2022/10/09 09:51:15;;;;;;;4.93;3.07;;;12.70;99.90;;;;;;5060086;28;20192;-32
2022/10/09 09:53:59;;;;;;;5.03;2.70;;;12.80;99.90;;;;;;5064991;28;20215;-32
2022/10/09 09:56:39;;;;;;;4.67;3.10;;;12.90;99.90;;;;;;5065814;28;20223;-32
2022/10/09 09:59:31;;;;;;;5.73;2.73;;;13.00;99.90;;;;;;5058861;28;20211;-32
2022/10/09 10:02:18;;;;;;;4.17;2.87;;;13.10;99.90;;;;;;5067634;28;20597;-32
2022/10/09 10:04:56;;;;;;;4.23;2.83;;;13.10;99.90;;;;;;5060688;28;20214;-32
2022/10/09 10:07:50;;;;;;;7.10;2.87;;;13.20;99.90;;;;;;5066322;28;20203;-33
2022/10/09 10:10:24;;;;;;;6.97;3.33;;;13.30;99.90;;;;;;5063295;28;20291;-32
2022/10/09 10:12:52;;;;;;;5.40;2.80;;;13.40;99.90;;;;;;5065781;28;20249;-32
2022/10/09 10:15:28;;;;;;;6.63;2.97;;;13.50;99.90;;;;;;5058037;28;20593;-32
2022/10/09 10:18:10;;;;;;;6.53;2.60;;;13.60;99.90;;;;;;5068292;28;20243;-33
2022/10/09 10:21:03;;;;;;;6.23;2.80;;;13.60;99.90;;;;;;5068565;28;20779;-32
2022/10/09 10:23:49;;;;;;;5.10;2.10;;;13.70;99.90;;;;;;5069436;28;20256;-32
2022/10/09 10:26:36;;;;;;;3.93;2.37;;;13.80;99.90;;;;;;5063740;28;20298;-32
2022/10/09 10:29:41;;;;;;;8.40;2.83;;;13.90;99.90;;;;;;5080977;28;20291;-32
2022/10/09 10:32:28;;;;;;;5.80;3.03;;;14.00;99.90;;;;;;5062808;28;20570;-32
2022/10/09 10:35:13;;;;;;;6.43;2.63;;;14.10;99.90;;;;;;5067080;28;20570;-32
2022/10/09 10:37:59;;;;;;;4.77;2.83;;;14.10;99.90;;;;;;5060256;28;20299;-32
2022/10/09 10:40:36;;;;;;;5.00;2.20;;;14.20;99.90;;;;;;5063239;28;20662;-32
2022/10/09 10:43:09;;;;;;;5.83;2.60;;;14.30;99.90;;;;;;5068354;28;20202;-32
2022/10/09 10:45:51;;;;;;;4.30;2.30;;;14.30;99.90;;;;;;5060493;28;20228;-32
2022/10/09 10:48:29;;;;;;;4.50;2.20;;;14.40;99.90;;;;;;5067686;28;20623;-32
2022/10/09 10:51:18;;;;;;;6.57;2.47;;;14.50;99.90;;;;;;5059034;28;20226;-33
2022/10/09 10:54:22;;;;;;;7.03;2.37;;;14.60;99.90;;;;;;5048893;28;20215;-32
2022/10/09 10:56:54;;;;;;;4.67;2.17;;;14.70;99.90;;;;;;5062120;28;20194;-32
2022/10/09 10:59:49;;;;;;;4.07;1.90;;;14.70;99.90;;;;;;5067593;28;20310;-32
2022/10/09 11:02:23;;;;;;;3.70;2.20;;;14.80;99.90;;;;;;5064946;28;20222;-33
2022/10/09 11:05:06;;;;;;;4.13;2.13;;;14.80;99.90;;;;;;5066485;28;20968;-33
2022/10/09 11:07:36;;;;;;;4.00;2.20;;;14.90;99.90;;;;;;5068837;28;20249;-32
2022/10/09 11:10:28;;;;;;;3.57;2.03;;;15.00;99.90;;;;;;5068969;28;20202;-32
2022/10/09 11:13:28;;;;;;;5.03;1.87;;;15.10;99.90;;;;;;5067391;28;20769;-32
2022/10/09 11:15:58;;;;;;;2.30;1.63;;;15.20;99.90;;;;;;5064792;28;20299;-33
2022/10/09 11:18:31;;;;;;;4.30;1.60;;;15.20;99.90;;;;;;5067578;28;20679;-33
2022/10/09 11:21:34;;;;;;;6.17;2.30;;;15.30;99.90;;;;;;5051152;28;20227;-31
2022/10/09 11:24:25;;;;;;;2.73;1.57;;;15.40;99.90;;;;;;5067430;28;20666;-33
2022/10/09 11:27:07;;;;;;;5.50;2.30;;;15.40;99.90;;;;;;5049762;28;20220;-33
2022/10/09 11:29:53;;;;;;;5.57;2.00;;;15.60;99.90;;;;;;5050726;28;20189;-32
2022/10/09 11:32:29;;;;;;;3.57;1.60;;;15.70;99.90;;;;;;5061085;28;20206;-32
2022/10/09 11:35:12;;;;;;;2.70;1.50;;;15.70;99.90;;;;;;5057610;28;20982;-32
2022/10/09 11:37:42;;;;;;;3.17;1.73;;;15.80;99.90;;;;;;5069088;28;20295;-32
2022/10/09 11:40:23;;;;;;;6.87;1.67;;;15.90;99.90;;;;;;5069024;28;20188;-32
2022/10/09 11:43:01;;;;;;;4.17;1.67;;;16.00;99.90;;;;;;5064963;28;20199;-32
2022/10/09 11:45:55;;;;;;;4.50;1.60;;;16.10;99.90;;;;;;5053348;28;20204;-32
2022/10/09 11:48:41;;;;;;;3.93;1.50;;;16.20;99.90;;;;;;5058148;28;20200;-32
2022/10/09 11:51:18;;;;;;;3.87;1.60;;;16.30;99.90;;;;;;5065592;28;20218;-32
2022/10/09 11:53:46;;;;;;;4.63;1.53;;;16.30;99.90;;;;;;5069410;28;20288;-32
2022/10/09 11:56:25;;;;;;;4.57;1.47;;;16.40;99.90;;;;;;5070404;28;20219;-32
2022/10/09 11:59:03;;;;;;;4.97;1.77;;;16.50;99.90;;;;;;5068821;28;20211;-32
2022/10/09 12:01:39;;;;;;;3.77;1.40;;;16.60;99.90;;;;;;5066378;28;20211;-32
2022/10/09 12:04:10;;;;;;;5.63;1.20;;;16.60;99.90;;;;;;5064443;28;20629;-32
2022/10/09 12:06:52;;;;;;;5.40;1.70;;;16.60;99.90;;;;;;5060601;28;20308;-32
2022/10/09 12:09:34;;;;;;;3.93;1.30;;;16.70;99.90;;;;;;5061445;28;20203;-32
2022/10/09 12:12:28;;;;;;;2.83;1.60;;;16.70;99.90;;;;;;5062279;28;20602;-33
2022/10/09 12:14:55;;;;;;;3.73;1.23;;;16.80;99.90;;;;;;5049768;28;20227;-32
2022/10/09 12:17:22;;;;;;;3.47;1.20;;;16.80;99.90;;;;;;5059208;28;20202;-32
2022/10/09 12:19:53;;;;;;;1.87;1.17;;;16.90;99.90;;;;;;5061008;28;20211;-32
2022/10/09 12:22:34;;;;;;;4.17;1.20;;;16.90;99.90;;;;;;5066107;28;20206;-32
2022/10/09 12:25:29;;;;;;;3.37;1.23;;;17.00;99.90;;;;;;5066495;28;20495;-33
2022/10/09 12:27:59;;;;;;;2.87;1.17;;;17.00;99.90;;;;;;5065446;28;20694;-32
2022/10/09 12:30:39;;;;;;;5.07;1.63;;;17.00;99.90;;;;;;5062480;28;20278;-32
2022/10/09 12:33:13;;;;;;;4.53;1.20;;;17.10;99.90;;;;;;5067528;28;20226;-32
2022/10/09 12:35:44;;;;;;;3.10;1.20;;;17.10;99.90;;;;;;5065332;28;20231;-32
2022/10/09 12:38:25;;;;;;;3.23;0.90;;;17.20;99.90;;;;;;5066809;28;21982;-32
2022/10/09 12:40:54;;;;;;;5.37;1.30;;;17.20;99.90;;;;;;5067090;28;20223;-33
2022/10/09 12:43:22;;;;;;;2.10;0.97;;;17.30;99.90;;;;;;5062493;28;20306;-32
2022/10/09 12:45:51;;;;;;;2.60;1.10;;;17.40;99.90;;;;;;5068342;28;20216;-33
2022/10/09 12:48:22;;;;;;;3.07;1.00;;;17.30;99.90;;;;;;5067262;28;20200;-32
2022/10/09 12:50:49;;;;;;;2.60;1.33;;;17.40;99.90;;;;;;5067029;28;20219;-32
2022/10/09 12:53:25;;;;;;;3.20;1.40;;;17.40;99.90;;;;;;5061750;28;20205;-32
2022/10/09 12:55:58;;;;;;;3.87;1.20;;;17.50;99.90;;;;;;5048264;28;20215;-33
2022/10/09 12:58:32;;;;;;;1.13;0.90;;;17.50;99.90;;;;;;5047550;28;20227;-32
2022/10/09 13:01:01;;;;;;;2.93;1.23;;;17.50;99.90;;;;;;5063443;28;20306;-33
2022/10/09 13:03:33;;;;;;;3.00;1.30;;;17.50;99.90;;;;;;5062734;28;20985;-32
2022/10/09 13:06:13;;;;;;;4.40;1.60;;;17.60;99.90;;;;;;5067675;28;20231;-33
2022/10/09 13:08:40;;;;;;;1.53;0.97;;;17.70;99.90;;;;;;5068171;28;20306;-32
2022/10/09 13:11:15;;;;;;;3.40;1.33;;;17.60;99.90;;;;;;5055091;28;20239;-32
2022/10/09 13:13:48;;;;;;;2.20;1.53;;;17.70;99.90;;;;;;5061431;28;20290;-32
2022/10/09 13:16:15;;;;;;;4.13;1.17;;;17.70;99.90;;;;;;5062086;28;20195;-32
2022/10/09 13:18:43;;;;;;;2.63;1.30;;;17.70;99.90;;;;;;5062937;28;20535;-32
2022/10/09 13:21:21;;;;;;;4.23;1.30;;;17.80;99.90;;;;;;5063256;28;20210;-32
2022/10/09 13:23:48;;;;;;;3.53;1.27;;;17.80;99.90;;;;;;5048705;28;20254;-32